sensor_id;sensor_type;location;lat;lon;timestamp;pressure;altitude;pressure_sealevel;temperature;humidity
17635;BME280;8936;49.010;12.120;2023-02-03T00:01:36;98862.09;;;3.35;100.00
17635;BME280;8936;49.010;12.120;2023-02-03T00:04:02;98860.72;;;3.39;100.00
17635;BME280;8936;49.010;12.120;2023-02-03T00:06:29;98863.13;;;3.34;100.00
17635;BME280;8936;49.010;12.120;2023-02-03T00:08:56;98864.69;;;3.21;100.00
17635;BME280;8936;49.010;12.120;2023-02-03T00:11:23;98860.34;;;3.14;100.00
17635;BME280;8936;49.010;12.120;2023-02-03T00:13:50;98862.94;;;3.07;100.00
17635;BME280;8936;49.010;12.120;2023-02-03T00:16:18;98850.94;;;3.05;100.00
17635;BME280;8936;49.010;12.120;2023-02-03T00:18:44;98864.09;;;2.98;100.00
17635;BME280;8936;49.010;12.120;2023-02-03T00:21:10;98865.19;;;3.10;100.00
17635;BME280;8936;49.010;12.120;2023-02-03T00:23:39;98859.63;;;3.26;100.00
17635;BME280;8936;49.010;12.120;2023-02-03T00:26:06;98854.28;;;3.48;100.00
17635;BME280;8936;49.010;12.120;2023-02-03T00:28:32;98856.38;;;3.24;100.00
17635;BME280;8936;49.010;12.120;2023-02-03T00:30:58;98862.34;;;3.40;100.00
17635;BME280;8936;49.010;12.120;2023-02-03T00:33:26;98848.47;;;3.24;100.00
17635;BME280;8936;49.010;12.120;2023-02-03T00:35:52;98859.53;;;3.13;100.00
17635;BME280;8936;49.010;12.120;2023-02-03T00:38:19;98855.66;;;3.09;100.00
17635;BME280;8936;49.010;12.120;2023-02-03T00:40:50;98854.91;;;3.15;100.00
17635;BME280;8936;49.010;12.120;2023-02-03T00:43:16;98844.41;;;3.28;100.00
17635;BME280;8936;49.010;12.120;2023-02-03T00:45:43;98852.31;;;3.28;100.00
17635;BME280;8936;49.010;12.120;2023-02-03T00:48:09;98845.38;;;3.55;100.00
17635;BME280;8936;49.010;12.120;2023-02-03T00:50:37;98844.22;;;3.64;100.00
17635;BME280;8936;49.010;12.120;2023-02-03T00:53:03;98840.59;;;3.78;100.00
17635;BME280;8936;49.010;12.120;2023-02-03T00:55:29;98840.19;;;3.75;100.00
17635;BME280;8936;49.010;12.120;2023-02-03T00:57:56;98832.09;;;3.83;100.00
17635;BME280;8936;49.010;12.120;2023-02-03T01:00:22;98844.75;;;3.94;100.00
17635;BME280;8936;49.010;12.120;2023-02-03T01:02:49;98840.06;;;3.96;100.00
17635;BME280;8936;49.010;12.120;2023-02-03T01:05:15;98838.66;;;4.00;100.00
17635;BME280;8936;49.010;12.120;2023-02-03T01:07:43;98829.72;;;4.01;100.00
17635;BME280;8936;49.010;12.120;2023-02-03T01:10:09;98833.81;;;4.10;100.00
17635;BME280;8936;49.010;12.120;2023-02-03T01:12:36;98829.38;;;4.17;100.00
17635;BME280;8936;49.010;12.120;2023-02-03T01:15:02;98832.63;;;4.19;100.00
17635;BME280;8936;49.010;12.120;2023-02-03T01:17:29;98824.91;;;4.24;100.00
17635;BME280;8936;49.010;12.120;2023-02-03T01:19:55;98826.94;;;4.22;100.00
17635;BME280;8936;49.010;12.120;2023-02-03T01:22:21;98823.47;;;4.22;100.00
17635;BME280;8936;49.010;12.120;2023-02-03T01:24:49;98826.72;;;4.17;100.00
17635;BME280;8936;49.010;12.120;2023-02-03T01:27:15;98837.53;;;4.29;100.00
17635;BME280;8936;49.010;12.120;2023-02-03T01:29:42;98831.03;;;4.31;100.00
17635;BME280;8936;49.010;12.120;2023-02-03T01:32:08;98828.97;;;4.20;100.00
17635;BME280;8936;49.010;12.120;2023-02-03T01:34:35;98825.94;;;4.23;100.00
17635;BME280;8936;49.010;12.120;2023-02-03T01:37:01;98832.22;;;4.22;100.00
17635;BME280;8936;49.010;12.120;2023-02-03T01:39:27;98824.50;;;4.27;100.00
17635;BME280;8936;49.010;12.120;2023-02-03T01:41:55;98828.38;;;4.31;100.00
17635;BME280;8936;49.010;12.120;2023-02-03T01:44:37;98828.81;;;4.42;100.00
17635;BME280;8936;49.010;12.120;2023-02-03T01:47:04;98825.13;;;4.29;100.00
17635;BME280;8936;49.010;12.120;2023-02-03T01:49:32;98822.09;;;4.32;100.00
17635;BME280;8936;49.010;12.120;2023-02-03T01:52:00;98819.00;;;4.22;100.00
17635;BME280;8936;49.010;12.120;2023-02-03T01:54:27;98818.19;;;4.28;100.00
17635;BME280;8936;49.010;12.120;2023-02-03T01:56:58;98808.22;;;4.30;100.00
17635;BME280;8936;49.010;12.120;2023-02-03T01:59:26;98805.59;;;4.30;100.00
17635;BME280;8936;49.010;12.120;2023-02-03T02:01:54;98802.34;;;4.28;100.00
17635;BME280;8936;49.010;12.120;2023-02-03T02:04:21;98802.94;;;4.37;100.00
17635;BME280;8936;49.010;12.120;2023-02-03T02:06:50;98801.94;;;4.31;100.00
17635;BME280;8936;49.010;12.120;2023-02-03T02:09:16;98802.75;;;4.39;100.00
17635;BME280;8936;49.010;12.120;2023-02-03T02:11:42;98806.00;;;4.34;100.00
17635;BME280;8936;49.010;12.120;2023-02-03T02:14:10;98796.47;;;4.33;100.00
17635;BME280;8936;49.010;12.120;2023-02-03T02:16:38;98792.38;;;4.30;100.00
17635;BME280;8936;49.010;12.120;2023-02-03T02:19:13;98773.84;;;4.30;100.00
17635;BME280;8936;49.010;12.120;2023-02-03T02:21:50;98770.41;;;4.36;100.00
17635;BME280;8936;49.010;12.120;2023-02-03T02:24:36;98770.81;;;4.33;100.00
17635;BME280;8936;49.010;12.120;2023-02-03T02:27:07;98768.94;;;4.21;100.00
17635;BME280;8936;49.010;12.120;2023-02-03T02:32:25;98754.97;;;4.27;100.00
17635;BME280;8936;49.010;12.120;2023-02-03T02:34:55;98759.03;;;4.29;100.00
17635;BME280;8936;49.010;12.120;2023-02-03T02:37:30;98754.75;;;4.35;100.00
17635;BME280;8936;49.010;12.120;2023-02-03T02:40:02;98754.94;;;4.40;100.00
17635;BME280;8936;49.010;12.120;2023-02-03T02:42:33;98738.69;;;4.30;100.00
17635;BME280;8936;49.010;12.120;2023-02-03T02:45:04;98742.13;;;4.44;100.00
17635;BME280;8936;49.010;12.120;2023-02-03T02:47:33;98738.06;;;4.34;100.00
17635;BME280;8936;49.010;12.120;2023-02-03T02:50:00;98745.78;;;4.43;100.00
17635;BME280;8936;49.010;12.120;2023-02-03T02:52:29;98745.19;;;4.41;100.00
17635;BME280;8936;49.010;12.120;2023-02-03T02:54:57;98744.59;;;4.39;100.00
17635;BME280;8936;49.010;12.120;2023-02-03T02:57:26;98744.78;;;4.50;100.00
17635;BME280;8936;49.010;12.120;2023-02-03T02:59:54;98739.50;;;4.44;100.00
17635;BME280;8936;49.010;12.120;2023-02-03T03:02:21;98743.94;;;4.36;100.00
17635;BME280;8936;49.010;12.120;2023-02-03T03:04:48;98743.16;;;4.36;100.00
17635;BME280;8936;49.010;12.120;2023-02-03T03:07:17;98737.44;;;4.52;100.00
17635;BME280;8936;49.010;12.120;2023-02-03T03:09:45;98743.78;;;4.45;100.00
17635;BME280;8936;49.010;12.120;2023-02-03T03:12:14;98752.09;;;4.42;100.00
17635;BME280;8936;49.010;12.120;2023-02-03T03:14:44;98735.84;;;4.45;100.00
17635;BME280;8936;49.010;12.120;2023-02-03T03:17:14;98750.47;;;4.41;100.00
17635;BME280;8936;49.010;12.120;2023-02-03T03:19:44;98749.88;;;4.52;100.00
17635;BME280;8936;49.010;12.120;2023-02-03T03:22:14;98741.13;;;4.45;100.00
17635;BME280;8936;49.010;12.120;2023-02-03T03:24:44;98742.75;;;4.52;100.00
17635;BME280;8936;49.010;12.120;2023-02-03T03:27:13;98734.81;;;4.52;100.00
17635;BME280;8936;49.010;12.120;2023-02-03T03:29:41;98737.06;;;4.42;100.00
17635;BME280;8936;49.010;12.120;2023-02-03T03:32:08;98737.84;;;4.43;100.00
17635;BME280;8936;49.010;12.120;2023-02-03T03:34:35;98745.38;;;4.46;100.00
17635;BME280;8936;49.010;12.120;2023-02-03T03:37:04;98762.28;;;4.51;100.00
17635;BME280;8936;49.010;12.120;2023-02-03T03:39:36;98771.66;;;4.54;100.00
17635;BME280;8936;49.010;12.120;2023-02-03T03:42:06;98768.78;;;4.62;100.00
17635;BME280;8936;49.010;12.120;2023-02-03T03:44:36;98778.56;;;4.48;100.00
17635;BME280;8936;49.010;12.120;2023-02-03T03:47:05;98787.50;;;4.54;100.00
17635;BME280;8936;49.010;12.120;2023-02-03T03:49:35;98785.06;;;4.59;100.00
17635;BME280;8936;49.010;12.120;2023-02-03T03:52:05;98795.25;;;4.62;100.00
17635;BME280;8936;49.010;12.120;2023-02-03T03:54:32;98786.69;;;4.53;100.00
17635;BME280;8936;49.010;12.120;2023-02-03T03:57:04;98772.47;;;4.48;100.00
17635;BME280;8936;49.010;12.120;2023-02-03T03:59:33;98776.53;;;4.50;100.00
17635;BME280;8936;49.010;12.120;2023-02-03T04:02:01;98765.53;;;4.53;100.00
17635;BME280;8936;49.010;12.120;2023-02-03T04:04:28;98761.06;;;4.54;100.00
17635;BME280;8936;49.010;12.120;2023-02-03T04:06:56;98769.81;;;4.48;100.00
17635;BME280;8936;49.010;12.120;2023-02-03T04:09:23;98792.19;;;4.65;100.00
17635;BME280;8936;49.010;12.120;2023-02-03T04:11:50;98811.94;;;4.69;100.00
17635;BME280;8936;49.010;12.120;2023-02-03T04:14:32;98824.97;;;4.64;100.00
17635;BME280;8936;49.010;12.120;2023-02-03T04:16:58;98819.84;;;4.56;100.00
17635;BME280;8936;49.010;12.120;2023-02-03T04:19:25;98823.75;;;4.60;100.00
17635;BME280;8936;49.010;12.120;2023-02-03T04:21:51;98810.91;;;4.57;100.00
17635;BME280;8936;49.010;12.120;2023-02-03T04:24:18;98819.84;;;4.56;100.00
17635;BME280;8936;49.010;12.120;2023-02-03T04:26:44;98817.22;;;4.62;100.00
17635;BME280;8936;49.010;12.120;2023-02-03T04:29:10;98803.81;;;4.57;100.00
17635;BME280;8936;49.010;12.120;2023-02-03T04:31:38;98800.13;;;4.52;100.00
17635;BME280;8936;49.010;12.120;2023-02-03T04:34:04;98782.00;;;4.62;100.00
17635;BME280;8936;49.010;12.120;2023-02-03T04:36:31;98789.34;;;4.60;100.00
17635;BME280;8936;49.010;12.120;2023-02-03T04:38:57;98782.22;;;4.60;100.00
17635;BME280;8936;49.010;12.120;2023-02-03T04:41:24;98777.13;;;4.59;100.00
17635;BME280;8936;49.010;12.120;2023-02-03T04:43:50;98778.56;;;4.61;100.00
17635;BME280;8936;49.010;12.120;2023-02-03T04:46:16;98767.38;;;4.53;100.00
17635;BME280;8936;49.010;12.120;2023-02-03T04:48:45;98775.53;;;4.58;100.00
17635;BME280;8936;49.010;12.120;2023-02-03T04:51:11;98776.72;;;4.75;100.00
17635;BME280;8936;49.010;12.120;2023-02-03T04:53:37;98754.13;;;4.72;100.00
17635;BME280;8936;49.010;12.120;2023-02-03T04:56:04;98756.97;;;4.64;100.00
17635;BME280;8936;49.010;12.120;2023-02-03T04:58:30;98756.19;;;4.64;100.00
17635;BME280;8936;49.010;12.120;2023-02-03T05:00:57;98735.44;;;4.61;100.00
17635;BME280;8936;49.010;12.120;2023-02-03T05:03:24;98733.16;;;4.64;100.00
17635;BME280;8936;49.010;12.120;2023-02-03T05:05:51;98743.97;;;4.63;100.00
17635;BME280;8936;49.010;12.120;2023-02-03T05:08:18;98741.50;;;4.81;100.00
17635;BME280;8936;49.010;12.120;2023-02-03T05:10:44;98741.09;;;4.64;100.00
17635;BME280;8936;49.010;12.120;2023-02-03T05:13:11;98741.72;;;4.66;100.00
17635;BME280;8936;49.010;12.120;2023-02-03T05:15:38;98732.97;;;4.66;100.00
17635;BME280;8936;49.010;12.120;2023-02-03T05:18:04;98736.84;;;4.63;100.00
17635;BME280;8936;49.010;12.120;2023-02-03T05:20:30;98733.78;;;4.66;100.00
17635;BME280;8936;49.010;12.120;2023-02-03T05:22:58;98747.22;;;4.71;100.00
17635;BME280;8936;49.010;12.120;2023-02-03T05:25:25;98755.16;;;4.78;100.00
17635;BME280;8936;49.010;12.120;2023-02-03T05:27:51;98761.03;;;4.80;100.00
17635;BME280;8936;49.010;12.120;2023-02-03T05:30:18;98766.56;;;4.65;100.00
17635;BME280;8936;49.010;12.120;2023-02-03T05:32:44;98777.31;;;4.77;100.00
17635;BME280;8936;49.010;12.120;2023-02-03T05:35:10;98758.00;;;4.76;100.00
17635;BME280;8936;49.010;12.120;2023-02-03T05:37:37;98741.31;;;4.63;100.00
17635;BME280;8936;49.010;12.120;2023-02-03T05:40:05;98737.66;;;4.64;100.00
17635;BME280;8936;49.010;12.120;2023-02-03T05:42:50;98750.47;;;4.67;100.00
17635;BME280;8936;49.010;12.120;2023-02-03T05:45:16;98745.97;;;4.74;100.00
17635;BME280;8936;49.010;12.120;2023-02-03T05:47:43;98732.56;;;4.69;100.00
17635;BME280;8936;49.010;12.120;2023-02-03T05:50:09;98745.19;;;4.67;100.00
17635;BME280;8936;49.010;12.120;2023-02-03T05:52:35;98759.44;;;4.66;100.00
17635;BME280;8936;49.010;12.120;2023-02-03T05:55:02;98756.56;;;4.74;100.00
17635;BME280;8936;49.010;12.120;2023-02-03T05:57:30;98756.97;;;4.71;100.00
17635;BME280;8936;49.010;12.120;2023-02-03T05:59:56;98756.56;;;4.74;100.00
17635;BME280;8936;49.010;12.120;2023-02-03T06:02:23;98749.84;;;4.78;100.00
17635;BME280;8936;49.010;12.120;2023-02-03T06:04:49;98755.16;;;4.78;100.00
17635;BME280;8936;49.010;12.120;2023-02-03T06:07:15;98759.44;;;4.85;100.00
17635;BME280;8936;49.010;12.120;2023-02-03T06:09:42;98768.38;;;4.78;100.00
17635;BME280;8936;49.010;12.120;2023-02-03T06:12:08;98769.59;;;4.75;100.00
17635;BME280;8936;49.010;12.120;2023-02-03T06:14:36;98754.56;;;4.76;100.00
17635;BME280;8936;49.010;12.120;2023-02-03T06:17:02;98767.38;;;4.72;100.00
17635;BME280;8936;49.010;12.120;2023-02-03T06:19:28;98751.28;;;4.74;100.00
17635;BME280;8936;49.010;12.120;2023-02-03T06:21:55;98754.56;;;4.63;100.00
17635;BME280;8936;49.010;12.120;2023-02-03T06:24:21;98749.44;;;4.74;100.00
17635;BME280;8936;49.010;12.120;2023-02-03T06:26:47;98745.38;;;4.72;100.00
17635;BME280;8936;49.010;12.120;2023-02-03T06:29:14;98742.13;;;4.70;100.00
17635;BME280;8936;49.010;12.120;2023-02-03T06:31:41;98735.81;;;4.77;100.00
17635;BME280;8936;49.010;12.120;2023-02-03T06:34:08;98721.56;;;4.72;100.00
17635;BME280;8936;49.010;12.120;2023-02-03T06:36:34;98707.94;;;4.75;100.00
17635;BME280;8936;49.010;12.120;2023-02-03T06:39:01;98713.41;;;4.80;100.00
17635;BME280;8936;49.010;12.120;2023-02-03T06:41:27;98700.63;;;4.70;100.00
17635;BME280;8936;49.010;12.120;2023-02-03T06:43:54;98707.31;;;4.73;100.00
17635;BME280;8936;49.010;12.120;2023-02-03T06:46:21;98714.22;;;4.74;100.00
17635;BME280;8936;49.010;12.120;2023-02-03T06:48:48;98701.19;;;4.85;100.00
17635;BME280;8936;49.010;12.120;2023-02-03T06:51:15;98700.22;;;4.73;100.00
17635;BME280;8936;49.010;12.120;2023-02-03T06:53:41;98693.06;;;4.74;100.00
17635;BME280;8936;49.010;12.120;2023-02-03T06:56:07;98691.66;;;4.65;100.00
17635;BME280;8936;49.010;12.120;2023-02-03T06:58:34;98689.22;;;4.70;100.00
17635;BME280;8936;49.010;12.120;2023-02-03T07:01:00;98684.75;;;4.70;100.00
17635;BME280;8936;49.010;12.120;2023-02-03T07:03:26;98685.53;;;4.71;100.00
17635;BME280;8936;49.010;12.120;2023-02-03T07:05:54;98686.16;;;4.73;100.00
17635;BME280;8936;49.010;12.120;2023-02-03T07:08:20;98692.22;;;4.80;100.00
17635;BME280;8936;49.010;12.120;2023-02-03T07:10:47;98688.16;;;4.77;100.00
17635;BME280;8936;49.010;12.120;2023-02-03T07:13:17;98677.41;;;4.79;100.00
17635;BME280;8936;49.010;12.120;2023-02-03T07:15:44;98685.75;;;4.76;100.00
17635;BME280;8936;49.010;12.120;2023-02-03T07:18:10;98696.75;;;4.73;100.00
17635;BME280;8936;49.010;12.120;2023-02-03T07:20:37;98689.63;;;4.67;100.00
17635;BME280;8936;49.010;12.120;2023-02-03T07:23:04;98709.16;;;4.72;100.00
17635;BME280;8936;49.010;12.120;2023-02-03T07:25:30;98690.81;;;4.71;100.00
17635;BME280;8936;49.010;12.120;2023-02-03T07:27:57;98698.75;;;4.71;100.00
17635;BME280;8936;49.010;12.120;2023-02-03T07:30:23;98704.28;;;4.76;100.00
17635;BME280;8936;49.010;12.120;2023-02-03T07:32:50;98711.16;;;4.77;100.00
17635;BME280;8936;49.010;12.120;2023-02-03T07:35:17;98704.47;;;4.74;100.00
17635;BME280;8936;49.010;12.120;2023-02-03T07:37:43;98706.09;;;4.69;100.00
17635;BME280;8936;49.010;12.120;2023-02-03T07:40:11;98703.44;;;4.75;100.00
17635;BME280;8936;49.010;12.120;2023-02-03T07:42:39;98714.63;;;4.77;100.00
17635;BME280;8936;49.010;12.120;2023-02-03T07:45:06;98719.75;;;4.72;100.00
17635;BME280;8936;49.010;12.120;2023-02-03T07:47:34;98701.63;;;4.76;100.00
17635;BME280;8936;49.010;12.120;2023-02-03T07:50:00;98715.63;;;4.83;100.00
17635;BME280;8936;49.010;12.120;2023-02-03T07:52:27;98722.56;;;4.84;100.00
17635;BME280;8936;49.010;12.120;2023-02-03T07:54:53;98712.38;;;4.94;100.00
17635;BME280;8936;49.010;12.120;2023-02-03T07:57:21;98690.41;;;4.80;100.00
17635;BME280;8936;49.010;12.120;2023-02-03T07:59:49;98698.75;;;4.84;100.00
17635;BME280;8936;49.010;12.120;2023-02-03T08:02:15;98708.72;;;4.88;100.00
17635;BME280;8936;49.010;12.120;2023-02-03T08:04:41;98709.91;;;4.93;100.00
17635;BME280;8936;49.010;12.120;2023-02-03T08:07:08;98705.25;;;4.88;100.00
17635;BME280;8936;49.010;12.120;2023-02-03T08:09:34;98708.91;;;4.87;100.00
17635;BME280;8936;49.010;12.120;2023-02-03T08:12:01;98721.13;;;4.88;100.00
17635;BME280;8936;49.010;12.120;2023-02-03T08:14:28;98732.56;;;4.82;100.00
17635;BME280;8936;49.010;12.120;2023-02-03T08:16:55;98729.69;;;4.90;100.00
17635;BME280;8936;49.010;12.120;2023-02-03T08:19:21;98700.78;;;4.82;100.00
17635;BME280;8936;49.010;12.120;2023-02-03T08:21:48;98700.78;;;4.82;100.00
17635;BME280;8936;49.010;12.120;2023-02-03T08:24:14;98710.16;;;4.84;100.00
17635;BME280;8936;49.010;12.120;2023-02-03T08:26:41;98710.16;;;4.91;100.00
17635;BME280;8936;49.010;12.120;2023-02-03T08:29:07;98721.31;;;5.00;100.00
17635;BME280;8936;49.010;12.120;2023-02-03T08:31:36;98708.09;;;4.93;100.00
17635;BME280;8936;49.010;12.120;2023-02-03T08:34:03;98709.28;;;5.10;100.00
17635;BME280;8936;49.010;12.120;2023-02-03T08:36:29;98714.19;;;5.00;100.00
17635;BME280;8936;49.010;12.120;2023-02-03T08:38:56;98715.81;;;5.01;100.00
17635;BME280;8936;49.010;12.120;2023-02-03T08:41:22;98694.69;;;4.88;100.00
17635;BME280;8936;49.010;12.120;2023-02-03T08:43:48;98689.78;;;4.92;100.00
17635;BME280;8936;49.010;12.120;2023-02-03T08:46:15;98675.72;;;4.91;100.00
17635;BME280;8936;49.010;12.120;2023-02-03T08:48:42;98691.34;;;5.12;100.00
17635;BME280;8936;49.010;12.120;2023-02-03T08:51:09;98695.00;;;5.11;100.00
17635;BME280;8936;49.010;12.120;2023-02-03T08:53:36;98701.31;;;5.17;100.00
17635;BME280;8936;49.010;12.120;2023-02-03T08:56:03;98692.59;;;5.03;100.00
17635;BME280;8936;49.010;12.120;2023-02-03T08:58:29;98699.16;;;4.87;100.00
17635;BME280;8936;49.010;12.120;2023-02-03T09:01:04;98688.94;;;4.98;100.00
17635;BME280;8936;49.010;12.120;2023-02-03T09:03:30;98690.16;;;5.02;100.00
17635;BME280;8936;49.010;12.120;2023-02-03T09:05:58;98686.31;;;4.91;100.00
17635;BME280;8936;49.010;12.120;2023-02-03T09:08:24;98691.19;;;5.01;100.00
17635;BME280;8936;49.010;12.120;2023-02-03T09:10:51;98695.03;;;5.05;100.00
17635;BME280;8936;49.010;12.120;2023-02-03T09:13:17;98692.78;;;5.08;100.00
17635;BME280;8936;49.010;12.120;2023-02-03T09:15:43;98686.28;;;5.04;100.00
17635;BME280;8936;49.010;12.120;2023-02-03T09:18:10;98681.00;;;4.98;100.00
17635;BME280;8936;49.010;12.120;2023-02-03T09:20:36;98687.94;;;4.92;100.00
17635;BME280;8936;49.010;12.120;2023-02-03T09:23:05;98692.59;;;5.03;100.00
17635;BME280;8936;49.010;12.120;2023-02-03T09:25:32;98696.66;;;4.99;100.00
17635;BME280;8936;49.010;12.120;2023-02-03T09:27:59;98695.88;;;4.92;100.00
17635;BME280;8936;49.010;12.120;2023-02-03T09:30:26;98673.09;;;4.91;100.00
17635;BME280;8936;49.010;12.120;2023-02-03T09:32:52;98685.50;;;4.97;100.00
17635;BME280;8936;49.010;12.120;2023-02-03T09:35:20;98698.13;;;4.95;100.00
17635;BME280;8936;49.010;12.120;2023-02-03T09:37:47;98691.19;;;4.94;100.00
17635;BME280;8936;49.010;12.120;2023-02-03T09:40:18;98701.97;;;4.99;100.00
17635;BME280;8936;49.010;12.120;2023-02-03T09:42:50;98696.09;;;4.90;100.00
17635;BME280;8936;49.010;12.120;2023-02-03T09:45:20;98712.56;;;4.99;100.00
17635;BME280;8936;49.010;12.120;2023-02-03T09:47:49;98715.81;;;5.01;100.00
17635;BME280;8936;49.010;12.120;2023-02-03T09:50:20;98710.72;;;4.93;100.00
17635;BME280;8936;49.010;12.120;2023-02-03T09:52:46;98704.03;;;4.97;100.00
17635;BME280;8936;49.010;12.120;2023-02-03T09:55:17;98704.41;;;5.01;100.00
17635;BME280;8936;49.010;12.120;2023-02-03T09:57:47;98698.13;;;4.95;100.00
17635;BME280;8936;49.010;12.120;2023-02-03T10:00:16;98699.72;;;5.03;100.00
17635;BME280;8936;49.010;12.120;2023-02-03T10:02:47;98695.66;;;5.00;100.00
17635;BME280;8936;49.010;12.120;2023-02-03T10:05:17;98695.84;;;4.99;100.00
17635;BME280;8936;49.010;12.120;2023-02-03T10:07:46;98698.28;;;5.13;100.00
17635;BME280;8936;49.010;12.120;2023-02-03T10:10:17;98685.25;;;4.99;100.00
17635;BME280;8936;49.010;12.120;2023-02-03T10:12:56;98685.25;;;4.99;100.00
17635;BME280;8936;49.010;12.120;2023-02-03T10:15:40;98686.88;;;5.06;100.00
17635;BME280;8936;49.010;12.120;2023-02-03T10:18:11;98689.53;;;5.06;100.00
17635;BME280;8936;49.010;12.120;2023-02-03T10:20:39;98686.31;;;4.98;100.00
17635;BME280;8936;49.010;12.120;2023-02-03T10:23:08;98677.72;;;5.09;100.00
17635;BME280;8936;49.010;12.120;2023-02-03T10:25:37;98671.41;;;5.03;100.00
17635;BME280;8936;49.010;12.120;2023-02-03T10:28:10;98672.63;;;5.07;100.00
17635;BME280;8936;49.010;12.120;2023-02-03T10:30:40;98680.94;;;5.11;100.00
17635;BME280;8936;49.010;12.120;2023-02-03T10:33:10;98671.41;;;5.10;100.00
17635;BME280;8936;49.010;12.120;2023-02-03T10:35:40;98680.72;;;5.19;100.00
17635;BME280;8936;49.010;12.120;2023-02-03T10:38:08;98687.47;;;5.15;100.00
17635;BME280;8936;49.010;12.120;2023-02-03T10:40:40;98679.13;;;5.11;100.00
17635;BME280;8936;49.010;12.120;2023-02-03T10:43:09;98672.56;;;5.20;100.00
17635;BME280;8936;49.010;12.120;2023-02-03T10:45:53;98643.50;;;5.07;100.00
17635;BME280;8936;49.010;12.120;2023-02-03T10:48:20;98645.31;;;5.13;100.00
17635;BME280;8936;49.010;12.120;2023-02-03T10:50:48;98629.41;;;5.20;100.00
17635;BME280;8936;49.010;12.120;2023-02-03T10:53:19;98625.75;;;5.14;100.00
17635;BME280;8936;49.010;12.120;2023-02-03T10:55:46;98596.59;;;5.21;100.00
17635;BME280;8936;49.010;12.120;2023-02-03T10:58:16;98605.16;;;5.23;100.00
17635;BME280;8936;49.010;12.120;2023-02-03T11:00:44;98614.09;;;5.28;100.00
17635;BME280;8936;49.010;12.120;2023-02-03T11:03:15;98623.63;;;5.29;100.00
17635;BME280;8936;49.010;12.120;2023-02-03T11:05:46;98631.81;;;5.28;100.00
17635;BME280;8936;49.010;12.120;2023-02-03T11:08:13;98611.06;;;5.18;100.00
17635;BME280;8936;49.010;12.120;2023-02-03T11:10:40;98611.03;;;5.25;100.00
17635;BME280;8936;49.010;12.120;2023-02-03T11:15:53;98605.09;;;5.29;100.00
17635;BME280;8936;49.010;12.120;2023-02-03T11:21:07;98575.78;;;5.24;100.00
17635;BME280;8936;49.010;12.120;2023-02-03T11:23:34;98581.09;;;5.24;100.00
17635;BME280;8936;49.010;12.120;2023-02-03T11:26:08;98583.78;;;5.18;100.00
17635;BME280;8936;49.010;12.120;2023-02-03T11:28:35;98560.13;;;5.23;100.00
17635;BME280;8936;49.010;12.120;2023-02-03T11:31:03;98556.41;;;5.30;100.00
17635;BME280;8936;49.010;12.120;2023-02-03T11:33:29;98561.50;;;5.32;100.00
17635;BME280;8936;49.010;12.120;2023-02-03T11:35:56;98551.13;;;5.30;100.00
17635;BME280;8936;49.010;12.120;2023-02-03T11:38:27;98560.41;;;5.39;100.00
17635;BME280;8936;49.010;12.120;2023-02-03T11:40:57;98542.91;;;5.38;100.00
17635;BME280;8936;49.010;12.120;2023-02-03T11:43:25;98529.03;;;5.43;100.00
17635;BME280;8936;49.010;12.120;2023-02-03T11:45:53;98520.78;;;5.26;100.00
17635;BME280;8936;49.010;12.120;2023-02-03T11:48:27;98517.63;;;5.42;100.00
17635;BME280;8936;49.010;12.120;2023-02-03T11:50:57;98507.09;;;5.29;100.00
17635;BME280;8936;49.010;12.120;2023-02-03T11:53:30;98518.03;;;5.39;100.00
17635;BME280;8936;49.010;12.120;2023-02-03T11:56:04;98513.13;;;5.43;100.00
17635;BME280;8936;49.010;12.120;2023-02-03T12:01:20;98511.13;;;5.38;100.00
17635;BME280;8936;49.010;12.120;2023-02-03T12:03:56;98514.09;;;5.49;100.00
17635;BME280;8936;49.010;12.120;2023-02-03T12:06:35;98520.00;;;5.51;100.00
17635;BME280;8936;49.010;12.120;2023-02-03T12:09:12;98531.47;;;5.44;100.00
17635;BME280;8936;49.010;12.120;2023-02-03T12:11:50;98521.31;;;5.41;100.00
17635;BME280;8936;49.010;12.120;2023-02-03T12:14:28;98512.31;;;5.42;100.00
17635;BME280;8936;49.010;12.120;2023-02-03T12:17:07;98513.53;;;5.47;100.00
17635;BME280;8936;49.010;12.120;2023-02-03T12:19:39;98506.00;;;5.43;100.00
17635;BME280;8936;49.010;12.120;2023-02-03T12:22:12;98494.25;;;5.58;100.00
17635;BME280;8936;49.010;12.120;2023-02-03T12:24:43;98504.00;;;5.64;100.00
17635;BME280;8936;49.010;12.120;2023-02-03T12:27:14;98491.06;;;5.49;100.00
17635;BME280;8936;49.010;12.120;2023-02-03T12:29:46;98492.66;;;5.57;100.00
17635;BME280;8936;49.010;12.120;2023-02-03T12:32:18;98485.34;;;5.77;100.00
17635;BME280;8936;49.010;12.120;2023-02-03T12:34:48;98492.47;;;5.52;100.00
17635;BME280;8936;49.010;12.120;2023-02-03T12:37:18;98468.25;;;5.48;100.00
17635;BME280;8936;49.010;12.120;2023-02-03T12:39:48;98475.88;;;5.63;100.00
17635;BME280;8936;49.010;12.120;2023-02-03T12:42:17;98478.69;;;5.68;100.00
17635;BME280;8936;49.010;12.120;2023-02-03T12:44:45;98472.56;;;5.67;100.00
17635;BME280;8936;49.010;12.120;2023-02-03T12:47:12;98471.25;;;5.76;100.00
17635;BME280;8936;49.010;12.120;2023-02-03T12:49:42;98457.94;;;5.65;100.00
17635;BME280;8936;49.010;12.120;2023-02-03T12:52:13;98462.72;;;5.74;100.00
17635;BME280;8936;49.010;12.120;2023-02-03T12:54:43;98455.31;;;5.83;100.00
17635;BME280;8936;49.010;12.120;2023-02-03T12:57:14;98420.78;;;5.71;100.00
17635;BME280;8936;49.010;12.120;2023-02-03T12:59:42;98394.66;;;5.75;100.00
17635;BME280;8936;49.010;12.120;2023-02-03T13:02:13;98388.66;;;5.61;100.00
17635;BME280;8936;49.010;12.120;2023-02-03T13:04:43;98395.09;;;5.72;100.00
17635;BME280;8936;49.010;12.120;2023-02-03T13:07:14;98375.38;;;5.86;100.00
17635;BME280;8936;49.010;12.120;2023-02-03T13:09:43;98387.50;;;5.75;100.00
17635;BME280;8936;49.010;12.120;2023-02-03T13:12:15;98375.03;;;5.76;100.00
17635;BME280;8936;49.010;12.120;2023-02-03T13:14:48;98353.72;;;5.71;100.00
17635;BME280;8936;49.010;12.120;2023-02-03T13:17:18;98349.72;;;5.80;100.00